Terminal Aerodrome Forecast
Issued by NWS Wilmington, OH

Current Version | Previous Version | Graphics & Text | Print | Product List | Glossary On
Versions: 1 2 3 4 5 6 7 8 9 10 11 12 13 14 15 16 17 18 19
000
FTUS41 KILN 311100
TAFCMH
TAF
KCMH 311138Z 3112/0112 18006KT 3SM -SHRA BR BKN007 OVC012
     FM311500 20009KT P6SM -SHRA OVC012
     FM311800 20010KT P6SM VCTS OVC015CB
     FM312100 20009KT P6SM VCTS OVC025CB
     FM010100 19006KT P6SM BKN050
     FM011000 21004KT 5SM BR OVC015=

USA.gov is the U.S. government's official web portal to all federal, state and local government web resources and services.